Pagina principale
METAR-TAF:

METAR-TAF

Aeroporti :

Aeroporto Internazionale del Cairo

Il Cairo, Egitto

latitudine: 30-08N, longitudine: 031-24E, altezza: 64 m

Osservazione

Il bollettino è stato emesso 14 minuti fa, alle 12:30 UTC
Vento 10 kt da nord-est
Temperature 25°C
Umidità 15%
Pressione 1016 hPa
Visibilità 10 km o più
nessuna nube inferiore a 1500 m e nessun cumulonembo

METAR: HECA 201230Z 05010KT CAVOK 25/M03 Q1016 NOSIG

Ora: 14:44 (12:44 UTC)

Previsione

Il bollettino è stato emesso 1 ora e 44 minuti fa, alle 11:00 UTC
Previsione valida dal 20 alle 12 UTC al 21 alle 18 UTC
Vento 12 kt da nord-est
Visibilità 10 km o più
nessuna nube inferiore a 1500 m e nessun cumulonembo
Probabilità 40% :
Temporaneamente
dal 21 alle 00 UTC al 21 alle 07 UTC
Vento 3 kt da direzioni variabili
Visibilità: 4000 m
foschia

TAF: HECA 201100Z 2012/2118 05012KT CAVOK PROB40 TEMPO 2100/2107 VRB03KT 4000 HZ NSC

Osservazioni e previsioni meteorologiche di più di 4000 aeroporti (messaggi METAR e TAF).

Le stazioni disponibili sono rappresentate dai dischi gialli e rossi sulla carta.

Puntare il mouse per vedere il nome della stazione.

Clicca sopra per visualizzare le osservazioni e previsioni meteorologiche.

Per cambiare la mappa : fare clic sui pulsanti verdi con una croce nera per ingrandire, il pulsante verde con un trattino per diminuire, o sulla freccia verde per le mappe adiacenti.


METAR-TAF: